sensor_id;sensor_type;location;lat;lon;timestamp;P1;durP1;ratioP1;P2;durP2;ratioP2
17949;SDS011;9100;48.700;9.316;2023-05-29T00:00:05;6.9;;;5.9;;
17949;SDS011;9100;48.700;9.316;2023-05-29T00:01:05;6.9;;;5.9;;
17949;SDS011;9100;48.700;9.316;2023-05-29T00:02:05;6.9;;;5.9;;
17949;SDS011;9100;48.700;9.316;2023-05-29T00:03:05;6.9;;;5.9;;
17949;SDS011;9100;48.700;9.316;2023-05-29T00:04:05;6.9;;;5.9;;
17949;SDS011;9100;48.700;9.316;2023-05-29T00:04:56;16.2;;;6.6;;
17949;SDS011;9100;48.700;9.316;2023-05-29T00:05:05;16.2;;;6.6;;
17949;SDS011;9100;48.700;9.316;2023-05-29T00:06:05;16.2;;;6.6;;
17949;SDS011;9100;48.700;9.316;2023-05-29T00:07:05;16.2;;;6.6;;
17949;SDS011;9100;48.700;9.316;2023-05-29T00:08:05;16.2;;;6.6;;
17949;SDS011;9100;48.700;9.316;2023-05-29T00:09:05;16.2;;;6.6;;
17949;SDS011;9100;48.700;9.316;2023-05-29T00:09:56;10.3;;;6.1;;
17949;SDS011;9100;48.700;9.316;2023-05-29T00:10:06;10.3;;;6.1;;
17949;SDS011;9100;48.700;9.316;2023-05-29T00:11:05;10.3;;;6.1;;
17949;SDS011;9100;48.700;9.316;2023-05-29T00:12:05;10.3;;;6.1;;
17949;SDS011;9100;48.700;9.316;2023-05-29T00:13:05;10.3;;;6.1;;
17949;SDS011;9100;48.700;9.316;2023-05-29T00:14:05;10.3;;;6.1;;
17949;SDS011;9100;48.700;9.316;2023-05-29T00:14:56;8.9;;;5.4;;
17949;SDS011;9100;48.700;9.316;2023-05-29T00:15:06;8.9;;;5.4;;
17949;SDS011;9100;48.700;9.316;2023-05-29T00:16:05;8.9;;;5.4;;
17949;SDS011;9100;48.700;9.316;2023-05-29T00:17:05;8.9;;;5.4;;
17949;SDS011;9100;48.700;9.316;2023-05-29T00:18:05;8.9;;;5.4;;
17949;SDS011;9100;48.700;9.316;2023-05-29T00:19:05;8.9;;;5.4;;
17949;SDS011;9100;48.700;9.316;2023-05-29T00:19:56;6.3;;;5.2;;
17949;SDS011;9100;48.700;9.316;2023-05-29T00:20:06;6.3;;;5.2;;
17949;SDS011;9100;48.700;9.316;2023-05-29T00:21:05;6.3;;;5.2;;
17949;SDS011;9100;48.700;9.316;2023-05-29T00:22:05;6.3;;;5.2;;
17949;SDS011;9100;48.700;9.316;2023-05-29T00:23:05;6.3;;;5.2;;
17949;SDS011;9100;48.700;9.316;2023-05-29T00:24:05;6.3;;;5.2;;
17949;SDS011;9100;48.700;9.316;2023-05-29T00:24:56;7.8;;;6.1;;
17949;SDS011;9100;48.700;9.316;2023-05-29T00:25:05;7.8;;;6.1;;
17949;SDS011;9100;48.700;9.316;2023-05-29T00:26:05;7.8;;;6.1;;
17949;SDS011;9100;48.700;9.316;2023-05-29T00:27:05;7.8;;;6.1;;
17949;SDS011;9100;48.700;9.316;2023-05-29T00:28:06;7.8;;;6.1;;
17949;SDS011;9100;48.700;9.316;2023-05-29T00:29:05;7.8;;;6.1;;
17949;SDS011;9100;48.700;9.316;2023-05-29T00:29:56;10;;;5.6;;
17949;SDS011;9100;48.700;9.316;2023-05-29T00:30:06;10;;;5.6;;
17949;SDS011;9100;48.700;9.316;2023-05-29T00:31:05;10;;;5.6;;
17949;SDS011;9100;48.700;9.316;2023-05-29T00:32:05;10;;;5.6;;
17949;SDS011;9100;48.700;9.316;2023-05-29T00:33:05;10;;;5.6;;
17949;SDS011;9100;48.700;9.316;2023-05-29T00:34:05;10;;;5.6;;
17949;SDS011;9100;48.700;9.316;2023-05-29T00:34:56;6.1;;;5.2;;
17949;SDS011;9100;48.700;9.316;2023-05-29T00:35:05;6.1;;;5.2;;
17949;SDS011;9100;48.700;9.316;2023-05-29T00:36:05;6.1;;;5.2;;
17949;SDS011;9100;48.700;9.316;2023-05-29T00:37:05;6.1;;;5.2;;
17949;SDS011;9100;48.700;9.316;2023-05-29T00:38:05;6.1;;;5.2;;
17949;SDS011;9100;48.700;9.316;2023-05-29T00:39:05;6.1;;;5.2;;
17949;SDS011;9100;48.700;9.316;2023-05-29T00:39:56;10.3;;;5.1;;
17949;SDS011;9100;48.700;9.316;2023-05-29T00:40:05;10.3;;;5.1;;
17949;SDS011;9100;48.700;9.316;2023-05-29T00:41:05;10.3;;;5.1;;
17949;SDS011;9100;48.700;9.316;2023-05-29T00:42:05;10.3;;;5.1;;
17949;SDS011;9100;48.700;9.316;2023-05-29T00:43:05;10.3;;;5.1;;
17949;SDS011;9100;48.700;9.316;2023-05-29T00:44:05;10.3;;;5.1;;
17949;SDS011;9100;48.700;9.316;2023-05-29T00:44:56;9.6;;;5.8;;
17949;SDS011;9100;48.700;9.316;2023-05-29T00:45:05;9.6;;;5.8;;
17949;SDS011;9100;48.700;9.316;2023-05-29T00:46:05;9.6;;;5.8;;
17949;SDS011;9100;48.700;9.316;2023-05-29T00:47:05;9.6;;;5.8;;
17949;SDS011;9100;48.700;9.316;2023-05-29T00:48:05;9.6;;;5.8;;
17949;SDS011;9100;48.700;9.316;2023-05-29T00:49:06;9.6;;;5.8;;
17949;SDS011;9100;48.700;9.316;2023-05-29T00:49:56;7.3;;;5.6;;
17949;SDS011;9100;48.700;9.316;2023-05-29T00:50:05;7.3;;;5.6;;
17949;SDS011;9100;48.700;9.316;2023-05-29T00:51:05;7.3;;;5.6;;
17949;SDS011;9100;48.700;9.316;2023-05-29T00:52:06;7.3;;;5.6;;
17949;SDS011;9100;48.700;9.316;2023-05-29T00:53:05;7.3;;;5.6;;
17949;SDS011;9100;48.700;9.316;2023-05-29T00:54:05;7.3;;;5.6;;
17949;SDS011;9100;48.700;9.316;2023-05-29T00:54:57;10.8;;;5.6;;
17949;SDS011;9100;48.700;9.316;2023-05-29T00:55:05;10.8;;;5.6;;
17949;SDS011;9100;48.700;9.316;2023-05-29T00:56:05;10.8;;;5.6;;
17949;SDS011;9100;48.700;9.316;2023-05-29T00:57:05;10.8;;;5.6;;
17949;SDS011;9100;48.700;9.316;2023-05-29T00:58:05;10.8;;;5.6;;
17949;SDS011;9100;48.700;9.316;2023-05-29T00:59:05;10.8;;;5.6;;
17949;SDS011;9100;48.700;9.316;2023-05-29T00:59:57;6.1;;;5.5;;
17949;SDS011;9100;48.700;9.316;2023-05-29T01:00:06;6.1;;;5.5;;
17949;SDS011;9100;48.700;9.316;2023-05-29T01:01:05;6.1;;;5.5;;
17949;SDS011;9100;48.700;9.316;2023-05-29T01:02:05;6.1;;;5.5;;
17949;SDS011;9100;48.700;9.316;2023-05-29T01:03:05;6.1;;;5.5;;
17949;SDS011;9100;48.700;9.316;2023-05-29T01:04:05;6.1;;;5.5;;
17949;SDS011;9100;48.700;9.316;2023-05-29T01:04:56;5.6;;;5;;
17949;SDS011;9100;48.700;9.316;2023-05-29T01:05:05;5.6;;;5;;
17949;SDS011;9100;48.700;9.316;2023-05-29T01:06:05;5.6;;;5;;
17949;SDS011;9100;48.700;9.316;2023-05-29T01:07:05;5.6;;;5;;
17949;SDS011;9100;48.700;9.316;2023-05-29T01:08:05;5.6;;;5;;
17949;SDS011;9100;48.700;9.316;2023-05-29T01:09:05;5.6;;;5;;
17949;SDS011;9100;48.700;9.316;2023-05-29T01:09:56;11.2;;;5.8;;
17949;SDS011;9100;48.700;9.316;2023-05-29T01:10:06;11.2;;;5.8;;
17949;SDS011;9100;48.700;9.316;2023-05-29T01:11:07;11.2;;;5.8;;
17949;SDS011;9100;48.700;9.316;2023-05-29T01:12:08;11.2;;;5.8;;
17949;SDS011;9100;48.700;9.316;2023-05-29T01:13:06;11.2;;;5.8;;
17949;SDS011;9100;48.700;9.316;2023-05-29T01:14:06;11.2;;;5.8;;
17949;SDS011;9100;48.700;9.316;2023-05-29T01:15:01;6.9;;;5.4;;
17949;SDS011;9100;48.700;9.316;2023-05-29T01:15:14;6.9;;;5.4;;
17949;SDS011;9100;48.700;9.316;2023-05-29T01:16:08;6.9;;;5.4;;
17949;SDS011;9100;48.700;9.316;2023-05-29T01:17:06;6.9;;;5.4;;
17949;SDS011;9100;48.700;9.316;2023-05-29T01:18:12;6.9;;;5.4;;
17949;SDS011;9100;48.700;9.316;2023-05-29T01:19:08;6.9;;;5.4;;
17949;SDS011;9100;48.700;9.316;2023-05-29T01:20:03;7.5;;;5.1;;
17949;SDS011;9100;48.700;9.316;2023-05-29T01:20:08;7.5;;;5.1;;
17949;SDS011;9100;48.700;9.316;2023-05-29T01:21:06;7.5;;;5.1;;
17949;SDS011;9100;48.700;9.316;2023-05-29T01:22:08;7.5;;;5.1;;
17949;SDS011;9100;48.700;9.316;2023-05-29T01:23:07;7.5;;;5.1;;
17949;SDS011;9100;48.700;9.316;2023-05-29T01:24:09;7.5;;;5.1;;
17949;SDS011;9100;48.700;9.316;2023-05-29T01:24:58;6.2;;;4.5;;
17949;SDS011;9100;48.700;9.316;2023-05-29T01:25:08;6.2;;;4.5;;
17949;SDS011;9100;48.700;9.316;2023-05-29T01:26:07;6.2;;;4.5;;
17949;SDS011;9100;48.700;9.316;2023-05-29T01:27:05;6.2;;;4.5;;
17949;SDS011;9100;48.700;9.316;2023-05-29T01:28:05;6.2;;;4.5;;
17949;SDS011;9100;48.700;9.316;2023-05-29T01:29:06;6.2;;;4.5;;
17949;SDS011;9100;48.700;9.316;2023-05-29T01:29:56;8.3;;;5.5;;
17949;SDS011;9100;48.700;9.316;2023-05-29T01:30:05;8.3;;;5.5;;
17949;SDS011;9100;48.700;9.316;2023-05-29T01:31:05;8.3;;;5.5;;
17949;SDS011;9100;48.700;9.316;2023-05-29T01:32:05;8.3;;;5.5;;
17949;SDS011;9100;48.700;9.316;2023-05-29T01:33:05;8.3;;;5.5;;
17949;SDS011;9100;48.700;9.316;2023-05-29T01:34:05;8.3;;;5.5;;
17949;SDS011;9100;48.700;9.316;2023-05-29T01:34:56;5.5;;;5;;
17949;SDS011;9100;48.700;9.316;2023-05-29T01:35:05;5.5;;;5;;
17949;SDS011;9100;48.700;9.316;2023-05-29T01:36:05;5.5;;;5;;
17949;SDS011;9100;48.700;9.316;2023-05-29T01:37:05;5.5;;;5;;
17949;SDS011;9100;48.700;9.316;2023-05-29T01:38:05;5.5;;;5;;
17949;SDS011;9100;48.700;9.316;2023-05-29T01:39:05;5.5;;;5;;
17949;SDS011;9100;48.700;9.316;2023-05-29T01:39:56;6.4;;;5.5;;
17949;SDS011;9100;48.700;9.316;2023-05-29T01:40:06;6.4;;;5.5;;
17949;SDS011;9100;48.700;9.316;2023-05-29T01:41:05;6.4;;;5.5;;
17949;SDS011;9100;48.700;9.316;2023-05-29T01:42:05;6.4;;;5.5;;
17949;SDS011;9100;48.700;9.316;2023-05-29T01:43:05;6.4;;;5.5;;
17949;SDS011;9100;48.700;9.316;2023-05-29T01:44:06;6.4;;;5.5;;
17949;SDS011;9100;48.700;9.316;2023-05-29T01:44:56;8.6;;;5;;
17949;SDS011;9100;48.700;9.316;2023-05-29T01:45:05;8.6;;;5;;
17949;SDS011;9100;48.700;9.316;2023-05-29T01:46:05;8.6;;;5;;
17949;SDS011;9100;48.700;9.316;2023-05-29T01:47:06;8.6;;;5;;
17949;SDS011;9100;48.700;9.316;2023-05-29T01:48:05;8.6;;;5;;
17949;SDS011;9100;48.700;9.316;2023-05-29T01:49:05;8.6;;;5;;
17949;SDS011;9100;48.700;9.316;2023-05-29T01:49:56;6.3;;;4.9;;
17949;SDS011;9100;48.700;9.316;2023-05-29T01:50:05;6.3;;;4.9;;
17949;SDS011;9100;48.700;9.316;2023-05-29T01:51:05;6.3;;;4.9;;
17949;SDS011;9100;48.700;9.316;2023-05-29T01:52:05;6.3;;;4.9;;
17949;SDS011;9100;48.700;9.316;2023-05-29T01:53:05;6.3;;;4.9;;
17949;SDS011;9100;48.700;9.316;2023-05-29T01:54:05;6.3;;;4.9;;
17949;SDS011;9100;48.700;9.316;2023-05-29T01:54:56;5.9;;;4.8;;
17949;SDS011;9100;48.700;9.316;2023-05-29T01:55:05;5.9;;;4.8;;
17949;SDS011;9100;48.700;9.316;2023-05-29T01:56:05;5.9;;;4.8;;
17949;SDS011;9100;48.700;9.316;2023-05-29T01:57:05;5.9;;;4.8;;
17949;SDS011;9100;48.700;9.316;2023-05-29T01:58:05;5.9;;;4.8;;
17949;SDS011;9100;48.700;9.316;2023-05-29T01:59:05;5.9;;;4.8;;
17949;SDS011;9100;48.700;9.316;2023-05-29T01:59:56;6.1;;;4.9;;
17949;SDS011;9100;48.700;9.316;2023-05-29T02:00:06;6.1;;;4.9;;
17949;SDS011;9100;48.700;9.316;2023-05-29T02:01:05;6.1;;;4.9;;
17949;SDS011;9100;48.700;9.316;2023-05-29T02:02:06;6.1;;;4.9;;
17949;SDS011;9100;48.700;9.316;2023-05-29T02:03:05;6.1;;;4.9;;
17949;SDS011;9100;48.700;9.316;2023-05-29T02:04:05;6.1;;;4.9;;
17949;SDS011;9100;48.700;9.316;2023-05-29T02:04:56;8.4;;;5.3;;
17949;SDS011;9100;48.700;9.316;2023-05-29T02:05:06;8.4;;;5.3;;
17949;SDS011;9100;48.700;9.316;2023-05-29T02:06:05;8.4;;;5.3;;
17949;SDS011;9100;48.700;9.316;2023-05-29T02:07:05;8.4;;;5.3;;
17949;SDS011;9100;48.700;9.316;2023-05-29T02:08:05;8.4;;;5.3;;
17949;SDS011;9100;48.700;9.316;2023-05-29T02:09:05;8.4;;;5.3;;
17949;SDS011;9100;48.700;9.316;2023-05-29T02:09:56;7.5;;;5;;
17949;SDS011;9100;48.700;9.316;2023-05-29T02:10:05;7.5;;;5;;
17949;SDS011;9100;48.700;9.316;2023-05-29T02:11:05;7.5;;;5;;
17949;SDS011;9100;48.700;9.316;2023-05-29T02:12:05;7.5;;;5;;
17949;SDS011;9100;48.700;9.316;2023-05-29T02:13:05;7.5;;;5;;
17949;SDS011;9100;48.700;9.316;2023-05-29T02:14:05;7.5;;;5;;
17949;SDS011;9100;48.700;9.316;2023-05-29T02:14:57;7;;;5.1;;
17949;SDS011;9100;48.700;9.316;2023-05-29T02:15:06;7;;;5.1;;
17949;SDS011;9100;48.700;9.316;2023-05-29T02:16:05;7;;;5.1;;
17949;SDS011;9100;48.700;9.316;2023-05-29T02:17:05;7;;;5.1;;
17949;SDS011;9100;48.700;9.316;2023-05-29T02:18:05;7;;;5.1;;
17949;SDS011;9100;48.700;9.316;2023-05-29T02:19:05;7;;;5.1;;
17949;SDS011;9100;48.700;9.316;2023-05-29T02:19:56;5.4;;;4.9;;
17949;SDS011;9100;48.700;9.316;2023-05-29T02:20:06;5.4;;;4.9;;
17949;SDS011;9100;48.700;9.316;2023-05-29T02:21:05;5.4;;;4.9;;
17949;SDS011;9100;48.700;9.316;2023-05-29T02:22:05;5.4;;;4.9;;
17949;SDS011;9100;48.700;9.316;2023-05-29T02:23:05;5.4;;;4.9;;
17949;SDS011;9100;48.700;9.316;2023-05-29T02:24:05;5.4;;;4.9;;
17949;SDS011;9100;48.700;9.316;2023-05-29T02:24:57;12.4;;;5.3;;
17949;SDS011;9100;48.700;9.316;2023-05-29T02:25:05;12.4;;;5.3;;
17949;SDS011;9100;48.700;9.316;2023-05-29T02:26:05;12.4;;;5.3;;
17949;SDS011;9100;48.700;9.316;2023-05-29T02:27:05;12.4;;;5.3;;
17949;SDS011;9100;48.700;9.316;2023-05-29T02:28:05;12.4;;;5.3;;
17949;SDS011;9100;48.700;9.316;2023-05-29T02:29:05;12.4;;;5.3;;
17949;SDS011;9100;48.700;9.316;2023-05-29T02:29:56;7.4;;;4.7;;
17949;SDS011;9100;48.700;9.316;2023-05-29T02:30:06;7.4;;;4.7;;
17949;SDS011;9100;48.700;9.316;2023-05-29T02:31:05;7.4;;;4.7;;
17949;SDS011;9100;48.700;9.316;2023-05-29T02:32:05;7.4;;;4.7;;
17949;SDS011;9100;48.700;9.316;2023-05-29T02:33:05;7.4;;;4.7;;
17949;SDS011;9100;48.700;9.316;2023-05-29T02:34:05;7.4;;;4.7;;
17949;SDS011;9100;48.700;9.316;2023-05-29T02:34:57;5.4;;;4.7;;
17949;SDS011;9100;48.700;9.316;2023-05-29T02:35:06;5.4;;;4.7;;
17949;SDS011;9100;48.700;9.316;2023-05-29T02:36:05;5.4;;;4.7;;
17949;SDS011;9100;48.700;9.316;2023-05-29T02:37:05;5.4;;;4.7;;
17949;SDS011;9100;48.700;9.316;2023-05-29T02:38:05;5.4;;;4.7;;
17949;SDS011;9100;48.700;9.316;2023-05-29T02:39:05;5.4;;;4.7;;
17949;SDS011;9100;48.700;9.316;2023-05-29T02:39:56;7.7;;;5.2;;
17949;SDS011;9100;48.700;9.316;2023-05-29T02:40:05;7.7;;;5.2;;
17949;SDS011;9100;48.700;9.316;2023-05-29T02:41:05;7.7;;;5.2;;
17949;SDS011;9100;48.700;9.316;2023-05-29T02:42:05;7.7;;;5.2;;
17949;SDS011;9100;48.700;9.316;2023-05-29T02:43:05;7.7;;;5.2;;
17949;SDS011;9100;48.700;9.316;2023-05-29T02:44:06;7.7;;;5.2;;
17949;SDS011;9100;48.700;9.316;2023-05-29T02:44:56;7.5;;;5.4;;
17949;SDS011;9100;48.700;9.316;2023-05-29T02:45:05;7.5;;;5.4;;
17949;SDS011;9100;48.700;9.316;2023-05-29T02:46:05;7.5;;;5.4;;
17949;SDS011;9100;48.700;9.316;2023-05-29T02:47:05;7.5;;;5.4;;
17949;SDS011;9100;48.700;9.316;2023-05-29T02:48:06;7.5;;;5.4;;
17949;SDS011;9100;48.700;9.316;2023-05-29T02:49:05;7.5;;;5.4;;
17949;SDS011;9100;48.700;9.316;2023-05-29T02:49:56;7.1;;;4.8;;
17949;SDS011;9100;48.700;9.316;2023-05-29T02:50:05;7.1;;;4.8;;
17949;SDS011;9100;48.700;9.316;2023-05-29T02:51:05;7.1;;;4.8;;
17949;SDS011;9100;48.700;9.316;2023-05-29T02:52:05;7.1;;;4.8;;
17949;SDS011;9100;48.700;9.316;2023-05-29T02:53:05;7.1;;;4.8;;
17949;SDS011;9100;48.700;9.316;2023-05-29T02:54:05;7.1;;;4.8;;
17949;SDS011;9100;48.700;9.316;2023-05-29T02:54:56;8.5;;;5.9;;
17949;SDS011;9100;48.700;9.316;2023-05-29T02:55:06;8.5;;;5.9;;
17949;SDS011;9100;48.700;9.316;2023-05-29T02:56:05;8.5;;;5.9;;
17949;SDS011;9100;48.700;9.316;2023-05-29T02:57:05;8.5;;;5.9;;
17949;SDS011;9100;48.700;9.316;2023-05-29T02:58:05;8.5;;;5.9;;
17949;SDS011;9100;48.700;9.316;2023-05-29T02:59:05;8.5;;;5.9;;
17949;SDS011;9100;48.700;9.316;2023-05-29T02:59:56;6.8;;;4.9;;
17949;SDS011;9100;48.700;9.316;2023-05-29T03:00:06;6.8;;;4.9;;
17949;SDS011;9100;48.700;9.316;2023-05-29T03:01:05;6.8;;;4.9;;
17949;SDS011;9100;48.700;9.316;2023-05-29T03:02:05;6.8;;;4.9;;
17949;SDS011;9100;48.700;9.316;2023-05-29T03:03:05;6.8;;;4.9;;
17949;SDS011;9100;48.700;9.316;2023-05-29T03:04:05;6.8;;;4.9;;
17949;SDS011;9100;48.700;9.316;2023-05-29T03:04:56;5.4;;;4.9;;
17949;SDS011;9100;48.700;9.316;2023-05-29T03:05:05;5.4;;;4.9;;
17949;SDS011;9100;48.700;9.316;2023-05-29T03:06:05;5.4;;;4.9;;
17949;SDS011;9100;48.700;9.316;2023-05-29T03:07:05;5.4;;;4.9;;
17949;SDS011;9100;48.700;9.316;2023-05-29T03:08:05;5.4;;;4.9;;
17949;SDS011;9100;48.700;9.316;2023-05-29T03:09:05;5.4;;;4.9;;
17949;SDS011;9100;48.700;9.316;2023-05-29T03:09:56;9.1;;;5.3;;
17949;SDS011;9100;48.700;9.316;2023-05-29T03:10:06;9.1;;;5.3;;
17949;SDS011;9100;48.700;9.316;2023-05-29T03:11:05;9.1;;;5.3;;
17949;SDS011;9100;48.700;9.316;2023-05-29T03:12:05;9.1;;;5.3;;
17949;SDS011;9100;48.700;9.316;2023-05-29T03:13:06;9.1;;;5.3;;
17949;SDS011;9100;48.700;9.316;2023-05-29T03:14:05;9.1;;;5.3;;
17949;SDS011;9100;48.700;9.316;2023-05-29T03:14:56;9.5;;;5.2;;
17949;SDS011;9100;48.700;9.316;2023-05-29T03:15:05;9.5;;;5.2;;
17949;SDS011;9100;48.700;9.316;2023-05-29T03:16:05;9.5;;;5.2;;
17949;SDS011;9100;48.700;9.316;2023-05-29T03:17:05;9.5;;;5.2;;
17949;SDS011;9100;48.700;9.316;2023-05-29T03:18:05;9.5;;;5.2;;
17949;SDS011;9100;48.700;9.316;2023-05-29T03:19:05;9.5;;;5.2;;
17949;SDS011;9100;48.700;9.316;2023-05-29T03:19:56;5.8;;;4.7;;
17949;SDS011;9100;48.700;9.316;2023-05-29T03:20:05;5.8;;;4.7;;
17949;SDS011;9100;48.700;9.316;2023-05-29T03:21:05;5.8;;;4.7;;
17949;SDS011;9100;48.700;9.316;2023-05-29T03:22:05;5.8;;;4.7;;
17949;SDS011;9100;48.700;9.316;2023-05-29T03:23:05;5.8;;;4.7;;
17949;SDS011;9100;48.700;9.316;2023-05-29T03:24:05;5.8;;;4.7;;
17949;SDS011;9100;48.700;9.316;2023-05-29T03:24:57;6.5;;;4.5;;
17949;SDS011;9100;48.700;9.316;2023-05-29T03:25:05;6.5;;;4.5;;
17949;SDS011;9100;48.700;9.316;2023-05-29T03:26:05;6.5;;;4.5;;
17949;SDS011;9100;48.700;9.316;2023-05-29T03:27:05;6.5;;;4.5;;
17949;SDS011;9100;48.700;9.316;2023-05-29T03:28:05;6.5;;;4.5;;
17949;SDS011;9100;48.700;9.316;2023-05-29T03:29:05;6.5;;;4.5;;
17949;SDS011;9100;48.700;9.316;2023-05-29T03:29:57;7;;;5.4;;
17949;SDS011;9100;48.700;9.316;2023-05-29T03:30:06;7;;;5.4;;
17949;SDS011;9100;48.700;9.316;2023-05-29T03:31:05;7;;;5.4;;
17949;SDS011;9100;48.700;9.316;2023-05-29T03:32:05;7;;;5.4;;
17949;SDS011;9100;48.700;9.316;2023-05-29T03:33:05;7;;;5.4;;
17949;SDS011;9100;48.700;9.316;2023-05-29T03:34:05;7;;;5.4;;
17949;SDS011;9100;48.700;9.316;2023-05-29T03:34:57;6.9;;;5.1;;
17949;SDS011;9100;48.700;9.316;2023-05-29T03:35:06;6.9;;;5.1;;
17949;SDS011;9100;48.700;9.316;2023-05-29T03:36:05;6.9;;;5.1;;
17949;SDS011;9100;48.700;9.316;2023-05-29T03:37:06;6.9;;;5.1;;
17949;SDS011;9100;48.700;9.316;2023-05-29T03:38:05;6.9;;;5.1;;
17949;SDS011;9100;48.700;9.316;2023-05-29T03:39:05;6.9;;;5.1;;
17949;SDS011;9100;48.700;9.316;2023-05-29T03:39:56;9.2;;;5;;
17949;SDS011;9100;48.700;9.316;2023-05-29T03:40:05;9.2;;;5;;
17949;SDS011;9100;48.700;9.316;2023-05-29T03:41:05;9.2;;;5;;
17949;SDS011;9100;48.700;9.316;2023-05-29T03:42:05;9.2;;;5;;
17949;SDS011;9100;48.700;9.316;2023-05-29T03:43:05;9.2;;;5;;
17949;SDS011;9100;48.700;9.316;2023-05-29T03:44:05;9.2;;;5;;
17949;SDS011;9100;48.700;9.316;2023-05-29T03:44:57;6.8;;;5.1;;
17949;SDS011;9100;48.700;9.316;2023-05-29T03:45:06;6.8;;;5.1;;
17949;SDS011;9100;48.700;9.316;2023-05-29T03:46:05;6.8;;;5.1;;
17949;SDS011;9100;48.700;9.316;2023-05-29T03:47:05;6.8;;;5.1;;
17949;SDS011;9100;48.700;9.316;2023-05-29T03:48:05;6.8;;;5.1;;
17949;SDS011;9100;48.700;9.316;2023-05-29T03:49:05;6.8;;;5.1;;
17949;SDS011;9100;48.700;9.316;2023-05-29T03:49:57;6.9;;;5.3;;
17949;SDS011;9100;48.700;9.316;2023-05-29T03:50:06;6.9;;;5.3;;
17949;SDS011;9100;48.700;9.316;2023-05-29T03:51:05;6.9;;;5.3;;
17949;SDS011;9100;48.700;9.316;2023-05-29T03:52:05;6.9;;;5.3;;
17949;SDS011;9100;48.700;9.316;2023-05-29T03:53:05;6.9;;;5.3;;
17949;SDS011;9100;48.700;9.316;2023-05-29T03:54:05;6.9;;;5.3;;
17949;SDS011;9100;48.700;9.316;2023-05-29T03:54:57;4.8;;;4.4;;
17949;SDS011;9100;48.700;9.316;2023-05-29T03:55:07;4.8;;;4.4;;
17949;SDS011;9100;48.700;9.316;2023-05-29T03:56:05;4.8;;;4.4;;
17949;SDS011;9100;48.700;9.316;2023-05-29T03:57:05;4.8;;;4.4;;
17949;SDS011;9100;48.700;9.316;2023-05-29T03:58:05;4.8;;;4.4;;
17949;SDS011;9100;48.700;9.316;2023-05-29T03:59:05;4.8;;;4.4;;
17949;SDS011;9100;48.700;9.316;2023-05-29T03:59:56;9.1;;;5.1;;
17949;SDS011;9100;48.700;9.316;2023-05-29T04:00:06;9.1;;;5.1;;
17949;SDS011;9100;48.700;9.316;2023-05-29T04:01:05;9.1;;;5.1;;
17949;SDS011;9100;48.700;9.316;2023-05-29T04:02:05;9.1;;;5.1;;
17949;SDS011;9100;48.700;9.316;2023-05-29T04:03:05;9.1;;;5.1;;
17949;SDS011;9100;48.700;9.316;2023-05-29T04:04:05;9.1;;;5.1;;
17949;SDS011;9100;48.700;9.316;2023-05-29T04:04:57;5;;;4.5;;
17949;SDS011;9100;48.700;9.316;2023-05-29T04:05:06;5;;;4.5;;
17949;SDS011;9100;48.700;9.316;2023-05-29T04:06:05;5;;;4.5;;
17949;SDS011;9100;48.700;9.316;2023-05-29T04:07:05;5;;;4.5;;
17949;SDS011;9100;48.700;9.316;2023-05-29T04:08:05;5;;;4.5;;
17949;SDS011;9100;48.700;9.316;2023-05-29T04:09:05;5;;;4.5;;
17949;SDS011;9100;48.700;9.316;2023-05-29T04:09:56;7.7;;;5.5;;
17949;SDS011;9100;48.700;9.316;2023-05-29T04:10:06;7.7;;;5.5;;
17949;SDS011;9100;48.700;9.316;2023-05-29T04:11:05;7.7;;;5.5;;
17949;SDS011;9100;48.700;9.316;2023-05-29T04:12:05;7.7;;;5.5;;
17949;SDS011;9100;48.700;9.316;2023-05-29T04:13:05;7.7;;;5.5;;
17949;SDS011;9100;48.700;9.316;2023-05-29T04:14:05;7.7;;;5.5;;
17949;SDS011;9100;48.700;9.316;2023-05-29T04:14:56;7.6;;;5.4;;
17949;SDS011;9100;48.700;9.316;2023-05-29T04:15:06;7.6;;;5.4;;
17949;SDS011;9100;48.700;9.316;2023-05-29T04:16:06;7.6;;;5.4;;
17949;SDS011;9100;48.700;9.316;2023-05-29T04:17:05;7.6;;;5.4;;
17949;SDS011;9100;48.700;9.316;2023-05-29T04:18:05;7.6;;;5.4;;
17949;SDS011;9100;48.700;9.316;2023-05-29T04:19:05;7.6;;;5.4;;
17949;SDS011;9100;48.700;9.316;2023-05-29T04:19:56;7.5;;;5.5;;
17949;SDS011;9100;48.700;9.316;2023-05-29T04:20:06;7.5;;;5.5;;
17949;SDS011;9100;48.700;9.316;2023-05-29T04:21:05;7.5;;;5.5;;
17949;SDS011;9100;48.700;9.316;2023-05-29T04:22:06;7.5;;;5.5;;
17949;SDS011;9100;48.700;9.316;2023-05-29T04:23:05;7.5;;;5.5;;
17949;SDS011;9100;48.700;9.316;2023-05-29T04:24:05;7.5;;;5.5;;
17949;SDS011;9100;48.700;9.316;2023-05-29T04:24:56;6.5;;;5.8;;
17949;SDS011;9100;48.700;9.316;2023-05-29T04:25:05;6.5;;;5.8;;
17949;SDS011;9100;48.700;9.316;2023-05-29T04:26:05;6.5;;;5.8;;
17949;SDS011;9100;48.700;9.316;2023-05-29T04:27:05;6.5;;;5.8;;
17949;SDS011;9100;48.700;9.316;2023-05-29T04:28:05;6.5;;;5.8;;
17949;SDS011;9100;48.700;9.316;2023-05-29T04:29:05;6.5;;;5.8;;
17949;SDS011;9100;48.700;9.316;2023-05-29T04:29:56;6;;;5.4;;
17949;SDS011;9100;48.700;9.316;2023-05-29T04:30:06;6;;;5.4;;
17949;SDS011;9100;48.700;9.316;2023-05-29T04:31:05;6;;;5.4;;
17949;SDS011;9100;48.700;9.316;2023-05-29T04:32:06;6;;;5.4;;
17949;SDS011;9100;48.700;9.316;2023-05-29T04:33:06;6;;;5.4;;
17949;SDS011;9100;48.700;9.316;2023-05-29T04:34:05;6;;;5.4;;
17949;SDS011;9100;48.700;9.316;2023-05-29T04:34:56;9.9;;;6.2;;
17949;SDS011;9100;48.700;9.316;2023-05-29T04:35:06;9.9;;;6.2;;
17949;SDS011;9100;48.700;9.316;2023-05-29T04:36:05;9.9;;;6.2;;
17949;SDS011;9100;48.700;9.316;2023-05-29T04:37:05;9.9;;;6.2;;
17949;SDS011;9100;48.700;9.316;2023-05-29T04:38:05;9.9;;;6.2;;
17949;SDS011;9100;48.700;9.316;2023-05-29T04:39:05;9.9;;;6.2;;
17949;SDS011;9100;48.700;9.316;2023-05-29T04:39:56;12.3;;;6;;
17949;SDS011;9100;48.700;9.316;2023-05-29T04:40:06;12.3;;;6;;
17949;SDS011;9100;48.700;9.316;2023-05-29T04:41:05;12.3;;;6;;
17949;SDS011;9100;48.700;9.316;2023-05-29T04:42:05;12.3;;;6;;
17949;SDS011;9100;48.700;9.316;2023-05-29T04:43:05;12.3;;;6;;
17949;SDS011;9100;48.700;9.316;2023-05-29T04:44:05;12.3;;;6;;
17949;SDS011;9100;48.700;9.316;2023-05-29T04:44:56;13.2;;;5.1;;
17949;SDS011;9100;48.700;9.316;2023-05-29T04:45:06;13.2;;;5.1;;
17949;SDS011;9100;48.700;9.316;2023-05-29T04:46:05;13.2;;;5.1;;
17949;SDS011;9100;48.700;9.316;2023-05-29T04:47:06;13.2;;;5.1;;
17949;SDS011;9100;48.700;9.316;2023-05-29T04:48:05;13.2;;;5.1;;
17949;SDS011;9100;48.700;9.316;2023-05-29T04:49:06;13.2;;;5.1;;
17949;SDS011;9100;48.700;9.316;2023-05-29T04:49:56;6.9;;;5.4;;
17949;SDS011;9100;48.700;9.316;2023-05-29T04:50:06;6.9;;;5.4;;
17949;SDS011;9100;48.700;9.316;2023-05-29T04:51:06;6.9;;;5.4;;
17949;SDS011;9100;48.700;9.316;2023-05-29T04:52:06;6.9;;;5.4;;
17949;SDS011;9100;48.700;9.316;2023-05-29T04:53:06;6.9;;;5.4;;
17949;SDS011;9100;48.700;9.316;2023-05-29T04:54:05;6.9;;;5.4;;
17949;SDS011;9100;48.700;9.316;2023-05-29T04:54:56;8;;;4.9;;
17949;SDS011;9100;48.700;9.316;2023-05-29T04:55:05;8;;;4.9;;
17949;SDS011;9100;48.700;9.316;2023-05-29T04:56:05;8;;;4.9;;
17949;SDS011;9100;48.700;9.316;2023-05-29T04:57:05;8;;;4.9;;
17949;SDS011;9100;48.700;9.316;2023-05-29T04:58:05;8;;;4.9;;
17949;SDS011;9100;48.700;9.316;2023-05-29T04:59:05;8;;;4.9;;
17949;SDS011;9100;48.700;9.316;2023-05-29T04:59:56;6.6;;;5.2;;
17949;SDS011;9100;48.700;9.316;2023-05-29T05:00:06;6.6;;;5.2;;
17949;SDS011;9100;48.700;9.316;2023-05-29T05:01:05;6.6;;;5.2;;
17949;SDS011;9100;48.700;9.316;2023-05-29T05:02:05;6.6;;;5.2;;
17949;SDS011;9100;48.700;9.316;2023-05-29T05:03:05;6.6;;;5.2;;
17949;SDS011;9100;48.700;9.316;2023-05-29T05:04:05;6.6;;;5.2;;
17949;SDS011;9100;48.700;9.316;2023-05-29T05:04:56;5.6;;;4.8;;
17949;SDS011;9100;48.700;9.316;2023-05-29T05:05:06;5.6;;;4.8;;
17949;SDS011;9100;48.700;9.316;2023-05-29T05:06:06;5.6;;;4.8;;
17949;SDS011;9100;48.700;9.316;2023-05-29T05:07:06;5.6;;;4.8;;
17949;SDS011;9100;48.700;9.316;2023-05-29T05:08:06;5.6;;;4.8;;
17949;SDS011;9100;48.700;9.316;2023-05-29T05:09:06;5.6;;;4.8;;
17949;SDS011;9100;48.700;9.316;2023-05-29T05:09:56;6.6;;;5.3;;
17949;SDS011;9100;48.700;9.316;2023-05-29T05:10:06;6.6;;;5.3;;
17949;SDS011;9100;48.700;9.316;2023-05-29T05:11:06;6.6;;;5.3;;
17949;SDS011;9100;48.700;9.316;2023-05-29T05:12:06;6.6;;;5.3;;
17949;SDS011;9100;48.700;9.316;2023-05-29T05:13:06;6.6;;;5.3;;
17949;SDS011;9100;48.700;9.316;2023-05-29T05:14:05;6.6;;;5.3;;
17949;SDS011;9100;48.700;9.316;2023-05-29T05:14:56;5.6;;;5.1;;
17949;SDS011;9100;48.700;9.316;2023-05-29T05:15:06;5.6;;;5.1;;
17949;SDS011;9100;48.700;9.316;2023-05-29T05:16:05;5.6;;;5.1;;
17949;SDS011;9100;48.700;9.316;2023-05-29T05:17:05;5.6;;;5.1;;